Vetal, South Dakota
Current Conditions -  °F | °C
As of 8:52 PM on Thursday 18 Dec 2014 (Local Time) from KIEN Reporting Station
Clear Clear  
Wind Chill: 19°   Ceiling: Unl
Heat Index: 19°   Visibility: 10mi
Dew Point: 15°   Wind: 3mph
Humidity: 85%   Direction: 250°WSW
Pressure: 30.05"   Gusts: NA
Location:  43.2013°N, 101.679°W
Report Text: KIEN 190352Z AUTO 25003KT 10SM CLR M07/M09 A3005 RMK AO2 SLP229 T10721094
Loading
Personal Weather Stations






























Interactive Weather Map New forecast layout! Learn more

10-Day Weather Forecast

Advertisements
Track Severe Weather on mobile